Aviation Digital Data Service (ADDS)

Output produced by METARs form (2058 UTC 19 February 2017)
found at http://www.aviationweather.gov/adds/metars/
 
KSEG 192053Z AUTO 29005KT 10SM CLR 19/02 A2987 RMK AO2 SLP115 T01940022 53000
KSEG 191953Z AUTO 27006KT 10SM CLR 19/04 A2987 RMK AO2 SLP113 T01890039
KSEG 191853Z AUTO 30007KT 10SM CLR 18/05 A2987 RMK AO2 SLP115 T01780050
KSEG 191753Z AUTO 28007KT 10SM CLR 16/06 A2987 RMK AO2 SLP114 T01610056 10161 20006 58011
KSEG 191653Z AUTO 23005KT 10SM CLR 14/06 A2989 RMK AO2 SLP124 T01440061
KSEG 191553Z AUTO 29007KT 10SM CLR 13/06 A2991 RMK AO2 SLP129 T01330056
KSEG 191453Z AUTO 29010G16KT 10SM CLR 14/06 A2990 RMK AO2 SLP127 T01390061 51016
KSEG 191353Z AUTO 29005KT 10SM CLR 13/06 A2988 RMK AO2 SLP120 T01280061
KSEG 191253Z AUTO 00000KT 10SM CLR 04/02 A2988 RMK AO2 SLP119 T00390022
KSEG 191153Z AUTO 00000KT 10SM CLR 01/M01 A2985 RMK AO2 SLP110 T00061006 10106 20000 53023
KSEG 191053Z AUTO 00000KT 10SM CLR 01/00 A2982 RMK AO2 SLP100 T00060000
KSEG 190953Z AUTO 00000KT 10SM FEW110 02/01 A2981 RMK AO2 SLP095 T00220006
KSEG 190853Z AUTO 00000KT 10SM CLR 04/01 A2978 RMK AO2 SLP086 T00390011 51008
KSEG 190753Z AUTO 00000KT 10SM CLR 03/01 A2978 RMK AO2 SLP083 T00330011
KSEG 190653Z AUTO 00000KT 10SM CLR 03/01 A2977 RMK AO2 SLP080 T00330006
KSEG 190553Z AUTO 00000KT 10SM CLR 11/02 A2976 RMK AO2 SLP076 T01110017 10150 20017 53012
KSEG 190453Z AUTO 00000KT 10SM CLR 02/00 A2974 RMK AO2 SLP074 T00170000 402061044
KSEG 190353Z AUTO 00000KT 10SM CLR 02/00 A2973 RMK AO2 SLP070 T00170000
KSEG 190253Z AUTO 00000KT 10SM CLR 03/00 A2972 RMK AO2 SLP067 T00280000 51007
KSEG 190153Z AUTO 00000KT 10SM CLR 05/01 A2972 RMK AO2 SLP065 T00500006
KSEG 190053Z AUTO 00000KT 10SM CLR 06/01 A2971 RMK AO2 SLP065 T00610011
KSEG 182353Z AUTO 22005KT 10SM CLR 15/01 A2970 RMK AO2 SLP059 T01500006 10206 20150 53012
KSEG 182253Z AUTO 23005KT 10SM CLR 17/01 A2969 RMK AO2 SLP056 T01670006
KSEG 182153Z AUTO 22008G15KT 10SM CLR 19/01 A2967 RMK AO2 SLP049 T01890006
KSEG 182053Z AUTO 23007G14KT 10SM CLR 20/01 A2967 RMK AO2 SLP046 T02000011 56008
KSEG 181953Z AUTO 21009G17KT 10SM CLR 20/02 A2967 RMK AO2 SLP047 T02000017
KSEG 181853Z AUTO 22011G18KT 10SM CLR 19/02 A2968 RMK AO2 SLP050 T01890022
KSEG 181753Z AUTO 21011G16KT 10SM CLR 16/02 A2969 RMK AO2 SLP056 T01610017 10161 21028 58045
KSEG 181653Z AUTO 17007KT 10SM CLR 12/00 A2975 RMK AO2 SLP075 T01220000
KSEG 181553Z AUTO 17007KT 10SM CLR 09/M02 A2978 RMK AO2 SLP089 T00941017
KSEG 181453Z AUTO 17003KT 10SM CLR 06/M03 A2982 RMK AO2 SLP102 T00561033 50000
KSEG 181353Z AUTO 20004KT 10SM CLR 03/M04 A2984 RMK AO2 SLP108 T00331039
KSEG 181253Z AUTO 00000KT 8SM CLR M01/M04 A2983 RMK AO2 SLP105 T10111039
KSEG 181153Z AUTO 00000KT 10SM CLR M02/M07 A2982 RMK AO2 SLP103 T10171067 11011 21044 58007
KSEG 181053Z AUTO 00000KT 10SM CLR M02/M06 A2983 RMK AO2 SLP107 T10221061
KSEG 180953Z AUTO 00000KT 9SM CLR M04/M06 A2984 RMK AO2 SLP110 T10391056